createdAt,value
2018-12-31T00:00:41.520Z,3.40
2018-12-31T00:03:09.972Z,3.40
2018-12-31T00:05:38.444Z,3.40
2018-12-31T00:08:06.948Z,3.30
2018-12-31T00:10:35.400Z,3.30
2018-12-31T00:13:03.957Z,3.30
2018-12-31T00:15:34.162Z,3.30
2018-12-31T00:18:02.638Z,3.30
2018-12-31T00:20:31.169Z,3.30
2018-12-31T00:22:59.648Z,3.30
2018-12-31T00:25:28.132Z,3.30
2018-12-31T00:27:56.604Z,3.30
2018-12-31T00:30:25.100Z,3.30
2018-12-31T00:32:53.575Z,3.30
2018-12-31T00:35:22.129Z,3.30
2018-12-31T00:37:50.622Z,3.30
2018-12-31T00:40:19.108Z,3.40
2018-12-31T00:42:47.575Z,3.40
2018-12-31T00:45:16.047Z,3.40
2018-12-31T00:47:44.541Z,3.50
2018-12-31T00:50:13.010Z,3.40
2018-12-31T00:52:41.509Z,3.40
2018-12-31T00:55:09.984Z,3.30
2018-12-31T00:57:38.459Z,3.20
2018-12-31T01:00:07.010Z,3.20
2018-12-31T01:02:35.483Z,3.20
2018-12-31T01:05:04.269Z,3.20
2018-12-31T01:07:32.735Z,3.20
2018-12-31T01:10:01.209Z,3.20
2018-12-31T01:12:29.693Z,3.30
2018-12-31T01:14:58.169Z,3.40
2018-12-31T01:17:26.649Z,3.50
2018-12-31T01:19:55.120Z,3.50
2018-12-31T01:22:23.804Z,3.50
2018-12-31T01:24:52.284Z,3.60
2018-12-31T01:27:20.753Z,3.60
2018-12-31T01:29:49.234Z,3.70
2018-12-31T01:32:17.701Z,3.70
2018-12-31T01:34:46.184Z,3.60
2018-12-31T01:37:14.765Z,3.60
2018-12-31T01:39:43.253Z,3.60
2018-12-31T01:42:12.037Z,3.70
2018-12-31T01:44:40.536Z,3.60
2018-12-31T01:47:09.008Z,3.60
2018-12-31T01:49:37.502Z,3.60
2018-12-31T01:52:06.002Z,3.60
2018-12-31T01:54:34.441Z,3.60
2018-12-31T01:57:02.908Z,3.60
2018-12-31T01:59:31.400Z,3.60
2018-12-31T02:01:59.869Z,3.60
2018-12-31T02:04:28.365Z,3.50
2018-12-31T02:06:56.946Z,3.50
2018-12-31T02:09:25.463Z,3.50
2018-12-31T02:11:54.028Z,3.50
2018-12-31T02:14:22.585Z,3.60
2018-12-31T02:16:51.069Z,3.60
2018-12-31T02:19:19.552Z,3.50
2018-12-31T02:21:48.036Z,3.50
2018-12-31T02:24:16.576Z,3.40
2018-12-31T02:26:45.086Z,3.40
2018-12-31T02:29:13.556Z,3.30
2018-12-31T02:31:42.089Z,3.40
2018-12-31T02:34:10.583Z,3.40
2018-12-31T02:36:39.057Z,3.40
2018-12-31T02:39:07.701Z,3.40
2018-12-31T02:41:36.203Z,3.50
2018-12-31T02:44:04.767Z,3.50
2018-12-31T02:46:33.273Z,3.40
2018-12-31T02:49:01.760Z,3.40
2018-12-31T02:51:30.233Z,3.40
2018-12-31T02:53:58.717Z,3.50
2018-12-31T02:56:27.218Z,3.50
2018-12-31T02:58:55.684Z,3.50
2018-12-31T03:01:24.260Z,3.60
2018-12-31T03:03:52.760Z,3.50
2018-12-31T03:06:21.245Z,3.50
2018-12-31T03:08:49.716Z,3.50
2018-12-31T03:11:18.237Z,3.50
2018-12-31T03:13:46.746Z,3.50
2018-12-31T03:16:15.212Z,3.50
2018-12-31T03:18:43.720Z,3.50
2018-12-31T03:21:12.194Z,3.50
2018-12-31T03:23:40.674Z,3.50
2018-12-31T03:26:09.181Z,3.50
2018-12-31T03:28:37.860Z,3.50
2018-12-31T03:31:06.341Z,3.60
2018-12-31T03:33:34.911Z,3.60
2018-12-31T03:36:03.380Z,3.50
2018-12-31T03:38:31.869Z,3.50
2018-12-31T03:41:00.408Z,3.50
2018-12-31T03:43:28.888Z,3.50
2018-12-31T03:45:57.388Z,3.50
2018-12-31T03:48:25.853Z,3.50
2018-12-31T03:50:54.353Z,3.50
2018-12-31T03:53:22.840Z,3.50
2018-12-31T03:55:51.345Z,3.50
2018-12-31T03:58:19.809Z,3.50
2018-12-31T04:00:48.297Z,3.50
2018-12-31T04:03:16.797Z,3.50
2018-12-31T04:05:45.346Z,3.50
2018-12-31T04:08:13.824Z,3.50
2018-12-31T04:10:42.321Z,3.50
2018-12-31T04:13:10.788Z,3.40
2018-12-31T04:15:39.261Z,3.40
2018-12-31T04:18:07.758Z,3.40
2018-12-31T04:20:36.243Z,3.40
2018-12-31T04:23:04.725Z,3.40
2018-12-31T04:25:33.309Z,3.40
2018-12-31T04:28:01.788Z,3.30
2018-12-31T04:30:30.267Z,3.30
2018-12-31T04:32:58.851Z,3.30
2018-12-31T04:35:27.313Z,3.40
2018-12-31T04:37:55.784Z,3.40
2018-12-31T04:40:24.293Z,3.40
2018-12-31T04:42:52.783Z,3.30
2018-12-31T04:45:21.257Z,3.30
2018-12-31T04:47:49.761Z,3.30
2018-12-31T04:50:18.228Z,3.30
2018-12-31T04:52:46.719Z,3.40
2018-12-31T04:55:15.205Z,3.40
2018-12-31T04:57:43.671Z,3.40
2018-12-31T05:00:12.261Z,3.30
2018-12-31T05:02:40.749Z,3.30
2018-12-31T05:05:09.288Z,3.30
2018-12-31T05:07:37.773Z,3.30
2018-12-31T05:10:06.332Z,3.30
2018-12-31T05:12:34.821Z,3.30
2018-12-31T05:15:03.556Z,3.30
2018-12-31T05:17:32.020Z,3.30
2018-12-31T05:20:00.498Z,3.30
2018-12-31T05:22:29.080Z,3.30
2018-12-31T05:24:57.995Z,3.30
2018-12-31T05:27:26.646Z,3.30
2018-12-31T05:29:55.201Z,3.30
2018-12-31T05:32:23.651Z,3.40
2018-12-31T05:34:52.130Z,3.40
2018-12-31T05:37:20.628Z,3.40
2018-12-31T05:39:49.113Z,3.40
2018-12-31T05:42:17.597Z,3.40
2018-12-31T05:44:46.114Z,3.30
2018-12-31T05:47:14.569Z,3.40
2018-12-31T05:49:43.149Z,3.40
2018-12-31T05:52:11.628Z,3.40
2018-12-31T05:54:40.110Z,3.40
2018-12-31T05:57:08.605Z,3.40
2018-12-31T05:59:37.142Z,3.40
2018-12-31T06:02:05.624Z,3.50
2018-12-31T06:04:34.123Z,3.50
2018-12-31T06:07:02.629Z,3.50
2018-12-31T06:09:31.185Z,3.50
2018-12-31T06:11:59.692Z,3.50
2018-12-31T06:14:28.275Z,3.50
2018-12-31T06:16:56.749Z,3.50
2018-12-31T06:19:25.245Z,3.60
2018-12-31T06:21:53.756Z,3.60
2018-12-31T06:24:22.220Z,3.60
2018-12-31T06:26:50.685Z,3.50
2018-12-31T06:29:19.285Z,3.50
2018-12-31T06:31:47.798Z,3.60
2018-12-31T06:34:16.252Z,3.60
2018-12-31T06:36:44.740Z,3.70
2018-12-31T06:39:13.225Z,3.70
2018-12-31T06:41:41.689Z,3.70
2018-12-31T06:44:10.206Z,3.70
2018-12-31T06:46:38.682Z,3.70
2018-12-31T06:49:07.141Z,3.70
2018-12-31T06:51:35.617Z,3.60
2018-12-31T06:54:04.122Z,3.50
2018-12-31T06:56:32.625Z,3.40
2018-12-31T06:59:01.138Z,3.50
2018-12-31T07:01:29.629Z,3.50
2018-12-31T07:03:58.181Z,3.40
2018-12-31T07:06:26.673Z,3.40
2018-12-31T07:08:55.173Z,3.50
2018-12-31T07:11:23.673Z,3.50
2018-12-31T07:13:52.209Z,3.50
2018-12-31T07:16:20.695Z,3.50
2018-12-31T07:18:49.250Z,3.60
2018-12-31T07:21:17.749Z,3.50
2018-12-31T07:23:46.219Z,3.60
2018-12-31T07:26:14.716Z,3.60
2018-12-31T07:28:43.192Z,3.60
2018-12-31T07:31:11.673Z,3.60
2018-12-31T07:33:40.168Z,3.50
2018-12-31T07:36:08.660Z,3.50
2018-12-31T07:38:37.129Z,3.50
2018-12-31T07:41:05.709Z,3.60
2018-12-31T07:43:34.189Z,3.60
2018-12-31T07:46:02.685Z,3.60
2018-12-31T07:48:31.248Z,3.60
2018-12-31T07:50:59.747Z,3.70
2018-12-31T07:53:28.227Z,3.70
2018-12-31T07:55:56.697Z,3.70
2018-12-31T07:58:25.232Z,3.70
2018-12-31T08:00:53.697Z,3.80
2018-12-31T08:03:22.204Z,3.80
2018-12-31T08:05:50.669Z,3.80
2018-12-31T08:08:19.164Z,3.90
2018-12-31T08:10:47.716Z,3.80
2018-12-31T08:13:16.241Z,3.90
2018-12-31T08:15:44.761Z,3.90
2018-12-31T08:18:13.241Z,4.00
2018-12-31T08:20:41.800Z,4.00
2018-12-31T08:23:10.543Z,4.00
2018-12-31T08:25:39.008Z,4.10
2018-12-31T08:28:07.496Z,4.10
2018-12-31T08:30:35.958Z,4.10
2018-12-31T08:33:04.413Z,4.20
2018-12-31T08:35:32.973Z,4.20
2018-12-31T08:38:01.474Z,4.30
2018-12-31T08:40:29.956Z,4.30
2018-12-31T08:42:58.442Z,4.30
2018-12-31T08:45:26.929Z,4.40
2018-12-31T08:48:00.352Z,4.50
2018-12-31T08:50:28.806Z,4.50
2018-12-31T08:52:57.305Z,4.50
2018-12-31T08:55:25.784Z,4.60
2018-12-31T08:57:54.286Z,4.60
2018-12-31T09:00:22.795Z,4.70
2018-12-31T09:02:51.319Z,4.70
2018-12-31T09:05:19.781Z,4.70
2018-12-31T09:07:48.272Z,4.80
2018-12-31T09:10:16.750Z,4.80
2018-12-31T09:12:45.209Z,4.90
2018-12-31T09:15:14.690Z,4.90
2018-12-31T09:17:43.581Z,5.00
2018-12-31T09:20:12.047Z,5.10
2018-12-31T09:22:40.549Z,5.10
2018-12-31T09:25:09.025Z,5.20
2018-12-31T09:27:37.502Z,5.20
2018-12-31T09:30:06.337Z,5.20
2018-12-31T09:32:34.816Z,5.20
2018-12-31T09:35:03.357Z,5.20
2018-12-31T09:37:31.851Z,5.20
2018-12-31T09:40:01.204Z,5.20
2018-12-31T09:42:29.672Z,5.20
2018-12-31T09:44:58.157Z,5.20
2018-12-31T09:47:26.658Z,5.30
2018-12-31T09:49:55.632Z,5.30
2018-12-31T09:52:24.121Z,5.30
2018-12-31T09:54:52.603Z,5.40
2018-12-31T09:57:21.086Z,5.40
2018-12-31T09:59:49.551Z,5.40
2018-12-31T10:02:18.039Z,5.40
2018-12-31T10:04:46.516Z,5.50
2018-12-31T10:07:14.983Z,5.40
2018-12-31T10:09:43.561Z,5.40
2018-12-31T10:12:12.024Z,5.40
2018-12-31T10:14:40.500Z,5.50
2018-12-31T10:17:08.993Z,5.50
2018-12-31T10:19:37.457Z,5.60
2018-12-31T10:22:05.937Z,5.70
2018-12-31T10:24:34.458Z,5.80
2018-12-31T10:27:03.586Z,5.80
2018-12-31T10:29:35.970Z,5.90
2018-12-31T10:32:02.589Z,5.90
2018-12-31T10:34:31.058Z,6.00
2018-12-31T10:36:59.527Z,6.00
2018-12-31T10:39:28.152Z,6.00
2018-12-31T10:41:56.665Z,6.00
2018-12-31T10:44:25.125Z,6.00
2018-12-31T10:46:53.625Z,5.90
2018-12-31T10:49:22.084Z,5.90
2018-12-31T10:51:50.568Z,5.90
2018-12-31T10:54:19.129Z,5.90
2018-12-31T10:56:47.608Z,5.90
2018-12-31T10:59:16.113Z,5.80
2018-12-31T11:01:44.581Z,5.80
2018-12-31T11:04:13.062Z,5.90
2018-12-31T11:06:41.557Z,5.90
2018-12-31T11:09:10.039Z,5.90
2018-12-31T11:11:38.611Z,5.90
2018-12-31T11:14:07.085Z,6.00
2018-12-31T11:16:35.624Z,6.10
2018-12-31T11:26:00.425Z,6.20
2018-12-31T11:28:28.896Z,6.30
2018-12-31T11:30:57.380Z,6.30
2018-12-31T11:33:25.877Z,6.20
2018-12-31T11:35:54.421Z,6.30
2018-12-31T11:38:22.914Z,6.30
2018-12-31T11:40:51.404Z,6.40
2018-12-31T11:43:19.904Z,6.40
2018-12-31T11:45:48.381Z,6.40
2018-12-31T11:48:16.869Z,6.40
2018-12-31T11:50:45.421Z,6.30
2018-12-31T11:53:13.917Z,6.30
2018-12-31T11:55:42.400Z,6.30
2018-12-31T11:58:10.896Z,6.30
2018-12-31T12:00:39.372Z,6.40
2018-12-31T12:03:07.845Z,6.40
2018-12-31T12:05:36.347Z,6.40
2018-12-31T12:08:04.828Z,6.50
2018-12-31T12:10:33.309Z,6.50
2018-12-31T12:13:01.809Z,6.60
2018-12-31T12:15:30.296Z,6.60
2018-12-31T12:17:59.349Z,6.70
2018-12-31T12:20:27.922Z,6.80
2018-12-31T12:22:57.199Z,6.80
2018-12-31T12:25:25.740Z,6.80
2018-12-31T12:27:54.232Z,6.80
2018-12-31T12:30:23.396Z,6.80
2018-12-31T12:32:51.937Z,6.80
2018-12-31T12:35:20.553Z,6.80
2018-12-31T12:37:49.048Z,6.80
2018-12-31T12:40:17.529Z,6.80
2018-12-31T12:42:46.082Z,6.80
2018-12-31T12:45:14.621Z,6.70
2018-12-31T12:47:43.173Z,6.70
2018-12-31T12:50:11.736Z,6.70
2018-12-31T12:52:40.204Z,6.70
2018-12-31T12:55:08.689Z,6.80
2018-12-31T12:57:37.253Z,6.80
2018-12-31T13:00:07.124Z,6.90
2018-12-31T13:02:35.597Z,6.90
2018-12-31T13:05:04.244Z,6.90
2018-12-31T13:07:32.819Z,6.80
2018-12-31T13:10:01.370Z,6.80
2018-12-31T13:12:29.925Z,6.80
2018-12-31T13:14:58.489Z,6.80
2018-12-31T13:17:27.020Z,6.80
2018-12-31T13:20:00.733Z,6.90
2018-12-31T13:22:29.180Z,6.90
2018-12-31T13:24:57.669Z,6.80
2018-12-31T13:27:26.144Z,6.80
2018-12-31T13:29:54.605Z,6.80
2018-12-31T13:32:23.249Z,6.70
2018-12-31T13:34:51.769Z,6.70
2018-12-31T13:37:20.340Z,6.70
2018-12-31T13:39:48.782Z,6.70
2018-12-31T13:42:17.365Z,6.70
2018-12-31T13:44:45.870Z,6.70
2018-12-31T13:47:14.397Z,6.70
2018-12-31T13:49:42.890Z,6.70
2018-12-31T13:52:11.408Z,6.70
2018-12-31T13:54:40.076Z,6.80
2018-12-31T13:57:08.569Z,6.70
2018-12-31T13:59:37.148Z,6.70
2018-12-31T14:02:05.669Z,6.70
2018-12-31T14:04:34.145Z,6.70
2018-12-31T14:07:02.636Z,6.70
2018-12-31T14:09:31.481Z,6.70
2018-12-31T14:11:59.954Z,6.70
2018-12-31T14:14:28.744Z,6.70
2018-12-31T14:16:57.219Z,6.70
2018-12-31T14:19:25.776Z,6.60
2018-12-31T14:21:54.253Z,6.60
2018-12-31T14:24:22.808Z,6.60
2018-12-31T14:26:51.280Z,6.60
2018-12-31T14:29:19.748Z,6.60
2018-12-31T14:31:49.289Z,6.60
2018-12-31T14:34:17.754Z,6.60
2018-12-31T14:36:46.711Z,6.60
2018-12-31T14:39:15.285Z,6.60
2018-12-31T14:41:43.753Z,6.60
2018-12-31T14:44:12.228Z,6.70
2018-12-31T14:46:40.737Z,6.70
2018-12-31T14:49:09.612Z,6.70
2018-12-31T14:51:38.096Z,6.70
2018-12-31T14:54:06.565Z,6.60
2018-12-31T14:56:35.137Z,6.60
2018-12-31T14:59:03.605Z,6.60
2018-12-31T15:01:32.632Z,6.60
2018-12-31T15:04:01.138Z,6.60
2018-12-31T15:06:29.620Z,6.60
2018-12-31T15:08:58.101Z,6.60
2018-12-31T15:11:26.608Z,6.50
2018-12-31T15:13:55.104Z,6.50
2018-12-31T15:16:23.645Z,6.50
2018-12-31T15:18:52.273Z,6.50
2018-12-31T15:21:20.741Z,6.50
2018-12-31T15:23:49.284Z,6.50
2018-12-31T15:26:17.872Z,6.50
2018-12-31T15:28:46.341Z,6.50
2018-12-31T15:31:14.816Z,6.50
2018-12-31T15:33:43.393Z,6.50
2018-12-31T15:36:11.873Z,6.40
2018-12-31T15:38:40.364Z,6.40
2018-12-31T15:41:08.853Z,6.40
2018-12-31T15:43:37.422Z,6.40
2018-12-31T15:46:06.005Z,6.40
2018-12-31T15:48:34.496Z,6.40
2018-12-31T15:51:03.037Z,6.40
2018-12-31T15:53:32.200Z,6.40
2018-12-31T15:56:00.772Z,6.40
2018-12-31T15:58:29.304Z,6.30
2018-12-31T16:00:57.860Z,6.30
2018-12-31T16:03:26.345Z,6.20
2018-12-31T16:05:55.304Z,6.10
2018-12-31T16:08:23.776Z,6.10
2018-12-31T16:10:52.260Z,6.10
2018-12-31T16:13:20.749Z,6.10
2018-12-31T16:15:49.245Z,6.10
2018-12-31T16:18:17.821Z,6.10
2018-12-31T16:20:46.368Z,6.00
2018-12-31T16:23:14.868Z,6.10
2018-12-31T16:25:43.377Z,6.10
2018-12-31T16:28:11.925Z,6.00
2018-12-31T16:30:40.445Z,6.00
2018-12-31T16:33:08.933Z,6.00
2018-12-31T16:35:37.399Z,6.10
2018-12-31T16:38:05.968Z,6.10
2018-12-31T16:40:34.537Z,6.10
2018-12-31T16:43:03.118Z,6.10
2018-12-31T16:45:32.161Z,6.00
2018-12-31T16:48:00.704Z,6.10
2018-12-31T16:50:29.201Z,6.10
2018-12-31T16:52:57.756Z,6.10
2018-12-31T16:55:26.328Z,6.00
2018-12-31T16:57:55.313Z,6.00
2018-12-31T17:00:23.866Z,6.00
2018-12-31T17:02:52.417Z,6.00
2018-12-31T17:05:20.913Z,5.90
2018-12-31T17:07:49.388Z,5.90
2018-12-31T17:10:17.956Z,5.90
2018-12-31T17:12:46.569Z,5.90
2018-12-31T17:15:15.127Z,6.00
2018-12-31T17:17:43.696Z,5.90
2018-12-31T17:20:12.164Z,5.90
2018-12-31T17:22:40.624Z,5.90
2018-12-31T17:25:09.589Z,5.80
2018-12-31T17:27:38.349Z,5.80
2018-12-31T17:30:07.454Z,5.80
2018-12-31T17:32:36.008Z,5.80
2018-12-31T17:35:04.670Z,5.80
2018-12-31T17:37:33.612Z,5.80
2018-12-31T17:40:02.108Z,5.90
2018-12-31T17:42:30.665Z,5.90
2018-12-31T17:44:59.789Z,5.80
2018-12-31T17:47:28.282Z,5.80
2018-12-31T17:49:57.336Z,5.80
2018-12-31T17:52:25.830Z,5.80
2018-12-31T17:54:54.309Z,5.70
2018-12-31T17:57:22.801Z,5.70
2018-12-31T17:59:51.276Z,5.80
2018-12-31T18:02:19.759Z,5.70
2018-12-31T18:04:48.240Z,5.70
2018-12-31T18:07:16.763Z,5.70
2018-12-31T18:09:45.320Z,5.70
2018-12-31T18:12:13.865Z,5.70
2018-12-31T18:14:42.444Z,5.70
2018-12-31T18:17:11.369Z,5.70
2018-12-31T18:19:39.920Z,5.70
2018-12-31T18:22:08.428Z,5.70
2018-12-31T18:24:36.900Z,5.60
2018-12-31T18:27:05.375Z,5.60
2018-12-31T18:29:34.558Z,5.60
2018-12-31T18:32:03.044Z,5.50
2018-12-31T18:34:31.514Z,5.50
2018-12-31T18:37:00.006Z,5.50
2018-12-31T18:39:28.569Z,5.50
2018-12-31T18:41:57.683Z,5.50
2018-12-31T18:44:26.218Z,5.50
2018-12-31T18:46:54.752Z,5.50
2018-12-31T18:49:23.313Z,5.50
2018-12-31T18:51:51.905Z,5.50
2018-12-31T18:54:20.386Z,5.50
2018-12-31T18:56:49.333Z,5.50
2018-12-31T18:59:22.938Z,5.50
2018-12-31T19:01:51.493Z,5.50
2018-12-31T19:04:20.065Z,5.50
2018-12-31T19:06:48.563Z,5.60
2018-12-31T19:09:17.109Z,5.60
2018-12-31T19:11:45.589Z,5.60
2018-12-31T19:14:14.150Z,5.50
2018-12-31T19:16:42.624Z,5.50
2018-12-31T19:19:11.169Z,5.50
2018-12-31T19:21:39.668Z,5.50
2018-12-31T19:24:08.224Z,5.40
2018-12-31T19:26:36.801Z,5.50
2018-12-31T19:29:05.263Z,5.50
2018-12-31T19:31:33.740Z,5.50
2018-12-31T19:34:02.813Z,5.50
2018-12-31T19:36:31.290Z,5.40
2018-12-31T19:38:59.793Z,5.40
2018-12-31T19:41:28.353Z,5.50
2018-12-31T19:43:56.916Z,5.50
2018-12-31T19:46:25.500Z,5.50
2018-12-31T19:48:54.092Z,5.60
2018-12-31T19:51:22.581Z,5.60
2018-12-31T19:53:51.150Z,5.60
2018-12-31T19:56:19.605Z,5.50
2018-12-31T19:58:48.109Z,5.50
2018-12-31T20:01:16.595Z,5.50
2018-12-31T20:03:45.133Z,5.50
2018-12-31T20:06:13.700Z,5.50
2018-12-31T20:08:42.181Z,5.50
2018-12-31T20:11:10.692Z,5.50
2018-12-31T20:13:39.568Z,5.60
2018-12-31T20:16:08.030Z,5.60
2018-12-31T20:18:36.509Z,5.60
2018-12-31T20:21:05.092Z,5.60
2018-12-31T20:23:33.660Z,5.60
2018-12-31T20:26:02.209Z,5.60
2018-12-31T20:28:30.771Z,5.60
2018-12-31T20:30:59.246Z,5.60
2018-12-31T20:33:27.807Z,5.60
2018-12-31T20:35:56.380Z,5.60
2018-12-31T20:38:25.016Z,5.60
2018-12-31T20:40:53.600Z,5.60
2018-12-31T20:43:22.170Z,5.50
2018-12-31T20:45:50.733Z,5.50
2018-12-31T20:48:19.377Z,5.50
2018-12-31T20:50:47.853Z,5.50
2018-12-31T20:53:16.355Z,5.50
2018-12-31T20:55:45.409Z,5.50
2018-12-31T20:58:13.890Z,5.40
2018-12-31T21:00:42.758Z,5.40
2018-12-31T21:03:11.260Z,5.40
2018-12-31T21:05:39.741Z,5.40
2018-12-31T21:08:08.240Z,5.40
2018-12-31T21:10:36.712Z,5.40
2018-12-31T21:13:05.207Z,5.40
2018-12-31T21:15:33.745Z,5.40
2018-12-31T21:18:02.317Z,5.40
2018-12-31T21:20:30.806Z,5.40
2018-12-31T21:22:59.472Z,5.30
2018-12-31T21:25:28.032Z,5.30
2018-12-31T21:27:56.587Z,5.40
2018-12-31T21:30:25.125Z,5.40
2018-12-31T21:32:53.633Z,5.40
2018-12-31T21:35:22.145Z,5.40
2018-12-31T21:37:50.717Z,5.40
2018-12-31T21:40:19.229Z,5.40
2018-12-31T21:42:47.705Z,5.40
2018-12-31T21:45:16.284Z,5.40
2018-12-31T21:47:44.795Z,5.40
2018-12-31T21:50:13.581Z,5.40
2018-12-31T21:52:42.136Z,5.40
2018-12-31T21:55:10.689Z,5.50
2018-12-31T21:57:39.183Z,5.50
2018-12-31T22:00:09.449Z,5.50
2018-12-31T22:02:38.404Z,5.50
2018-12-31T22:05:07.344Z,5.50
2018-12-31T22:07:35.827Z,5.40
2018-12-31T22:10:05.044Z,5.50
2018-12-31T22:12:33.549Z,5.40
2018-12-31T22:15:02.369Z,5.40
2018-12-31T22:17:30.959Z,5.40
2018-12-31T22:19:59.433Z,5.40
2018-12-31T22:22:27.908Z,5.40
2018-12-31T22:24:56.493Z,5.40
2018-12-31T22:27:25.064Z,5.40
2018-12-31T22:29:53.644Z,5.40
2018-12-31T22:32:22.124Z,5.40
2018-12-31T22:34:50.664Z,5.40
2018-12-31T22:37:19.144Z,5.40
2018-12-31T22:39:47.679Z,5.50
2018-12-31T22:42:16.756Z,5.50
2018-12-31T22:44:45.237Z,5.50
2018-12-31T22:47:13.705Z,5.50
2018-12-31T22:49:42.213Z,5.50
2018-12-31T22:52:10.685Z,5.50
2018-12-31T22:54:39.253Z,5.50
2018-12-31T22:57:07.749Z,5.50
2018-12-31T22:59:36.300Z,5.50
2018-12-31T23:02:05.021Z,5.50
2018-12-31T23:04:33.518Z,5.40
2018-12-31T23:07:02.624Z,5.50
2018-12-31T23:09:31.101Z,5.50
2018-12-31T23:11:59.658Z,5.50
2018-12-31T23:14:28.201Z,5.40
2018-12-31T23:16:57.429Z,5.40
2018-12-31T23:19:25.921Z,5.30
2018-12-31T23:21:54.982Z,5.30
2018-12-31T23:24:23.553Z,5.30
2018-12-31T23:26:52.133Z,5.30
2018-12-31T23:29:20.644Z,5.30
2018-12-31T23:31:49.113Z,5.30
2018-12-31T23:34:18.156Z,5.30
2018-12-31T23:36:46.650Z,5.30
2018-12-31T23:39:15.320Z,5.30
2018-12-31T23:41:43.885Z,5.30
2018-12-31T23:44:12.448Z,5.30
2018-12-31T23:46:41.001Z,5.20
2018-12-31T23:49:09.601Z,5.20
2018-12-31T23:51:38.089Z,5.20
2018-12-31T23:54:06.593Z,5.20
2018-12-31T23:56:35.077Z,5.20
2018-12-31T23:59:03.708Z,5.10
